createdAt,value
2019-04-07T00:00:54.268Z,10.98
2019-04-07T00:02:55.723Z,11.02
2019-04-07T00:04:57.325Z,11.00
2019-04-07T00:07:00.378Z,10.99
2019-04-07T00:09:02.733Z,10.86
2019-04-07T00:11:04.582Z,10.75
2019-04-07T00:13:06.088Z,10.62
2019-04-07T00:15:08.281Z,10.56
2019-04-07T00:17:10.527Z,10.44
2019-04-07T00:19:12.242Z,10.46
2019-04-07T00:21:13.747Z,10.32
2019-04-07T00:23:15.230Z,10.31
2019-04-07T00:25:16.687Z,10.20
2019-04-07T00:27:18.103Z,10.23
2019-04-07T00:29:19.601Z,10.19
2019-04-07T00:31:21.609Z,10.15
2019-04-07T00:33:23.051Z,10.16
2019-04-07T00:35:30.458Z,10.09
2019-04-07T00:37:28.294Z,10.00
2019-04-07T00:39:29.790Z,9.91
2019-04-07T00:41:31.163Z,9.80
2019-04-07T00:43:32.529Z,9.83
2019-04-07T00:45:33.980Z,9.73
2019-04-07T00:47:35.375Z,9.74
2019-04-07T00:49:37.402Z,9.74
2019-04-07T00:51:38.942Z,9.76
2019-04-07T00:53:40.887Z,9.71
2019-04-07T00:55:42.607Z,9.70
2019-04-07T00:57:44.119Z,9.77
2019-04-07T00:59:46.119Z,9.92
2019-04-07T01:01:47.741Z,9.86
2019-04-07T01:03:49.171Z,9.83
2019-04-07T01:05:51.058Z,9.73
2019-04-07T01:07:52.594Z,9.76
2019-04-07T01:09:54.127Z,9.90
2019-04-07T01:11:55.600Z,9.80
2019-04-07T01:13:57.027Z,9.70
2019-04-07T01:15:58.741Z,9.83
2019-04-07T01:18:01.070Z,9.55
2019-04-07T01:20:06.556Z,9.31
2019-04-07T01:22:07.907Z,9.12
2019-04-07T01:24:09.827Z,9.07
2019-04-07T01:26:11.382Z,8.94
2019-04-07T01:28:13.035Z,9.08
2019-04-07T01:30:15.059Z,9.18
2019-04-07T01:32:16.536Z,9.30
2019-04-07T01:34:18.463Z,9.47
2019-04-07T01:36:19.915Z,9.62
2019-04-07T01:38:21.350Z,9.72
2019-04-07T01:40:23.396Z,9.87
2019-04-07T01:42:33.426Z,9.76
2019-04-07T01:44:46.130Z,9.69
2019-04-07T01:46:49.529Z,9.73
2019-04-07T01:48:55.957Z,9.83
2019-04-07T01:50:59.354Z,9.75
2019-04-07T01:53:02.690Z,9.81
2019-04-07T01:55:25.807Z,9.81
2019-04-07T01:57:35.456Z,9.82
2019-04-07T02:02:45.550Z,9.61
2019-04-07T02:05:27.111Z,9.33
2019-04-07T02:08:08.678Z,9.03
2019-04-07T02:13:33.879Z,9.03
2019-04-07T02:16:15.657Z,8.53
2019-04-07T02:27:24.369Z,8.93
2019-04-07T02:32:48.432Z,8.91
2019-04-07T02:35:30.079Z,8.96
2019-04-07T02:38:14.968Z,9.07
2019-04-07T02:40:55.679Z,8.83
2019-04-07T02:43:17.937Z,9.01
2019-04-07T02:48:48.937Z,7.76
2019-04-07T02:54:20.650Z,7.23
2019-04-07T02:57:02.449Z,7.60
2019-04-07T03:02:27.170Z,8.24
2019-04-07T03:05:02.138Z,8.03
2019-04-07T03:10:27.205Z,8.12
2019-04-07T03:13:09.254Z,7.78
2019-04-07T03:18:39.609Z,7.30
2019-04-07T03:21:20.749Z,7.23
2019-04-07T03:24:02.021Z,7.67
2019-04-07T03:26:43.349Z,7.35
2019-04-07T03:29:24.518Z,7.06
2019-04-07T03:32:07.865Z,7.29
2019-04-07T03:34:49.569Z,7.25
2019-04-07T03:37:39.073Z,7.25
2019-04-07T03:39:51.254Z,7.58
2019-04-07T03:45:22.129Z,6.75
2019-04-07T03:50:46.380Z,7.12
2019-04-07T03:53:28.478Z,7.49
2019-04-07T03:56:10.246Z,7.74
2019-04-07T03:58:52.347Z,7.85
2019-04-07T04:01:34.056Z,7.74
2019-04-07T04:04:16.718Z,8.13
2019-04-07T04:06:58.270Z,7.78
2019-04-07T04:09:41.180Z,7.51
2019-04-07T04:12:25.646Z,7.52
2019-04-07T04:17:30.704Z,7.03
2019-04-07T04:19:55.199Z,7.36
2019-04-07T04:22:38.041Z,7.23
2019-04-07T04:25:21.229Z,7.33
2019-04-07T04:27:36.990Z,7.06
2019-04-07T04:29:58.259Z,7.26
2019-04-07T04:32:19.506Z,6.97
2019-04-07T04:34:41.028Z,7.18
2019-04-07T04:37:02.506Z,6.87
2019-04-07T04:39:24.831Z,6.82
2019-04-07T04:41:47.075Z,7.16
2019-04-07T04:43:49.164Z,7.16
2019-04-07T04:45:53.236Z,7.10
2019-04-07T04:47:54.752Z,7.00
2019-04-07T04:49:56.097Z,6.97
2019-04-07T04:51:58.674Z,6.84
2019-04-07T04:54:00.482Z,6.80
2019-04-07T04:56:01.916Z,6.82
2019-04-07T04:58:04.118Z,6.80
2019-04-07T05:00:07.483Z,6.70
2019-04-07T05:02:09.016Z,6.36
2019-04-07T05:04:10.425Z,6.40
2019-04-07T05:06:11.936Z,6.80
2019-04-07T05:08:13.414Z,7.19
2019-04-07T05:10:14.853Z,7.19
2019-04-07T05:12:16.344Z,7.24
2019-04-07T05:14:17.760Z,7.38
2019-04-07T05:16:19.732Z,7.53
2019-04-07T05:18:21.195Z,7.36
2019-04-07T05:20:22.936Z,7.29
2019-04-07T05:22:24.416Z,7.40
2019-04-07T05:24:25.864Z,7.70
2019-04-07T05:26:27.292Z,7.64
2019-04-07T05:28:29.339Z,7.45
2019-04-07T05:30:31.459Z,7.40
2019-04-07T05:32:33.390Z,7.56
2019-04-07T05:34:35.305Z,7.74
2019-04-07T05:36:36.990Z,8.16
2019-04-07T05:38:38.726Z,8.14
2019-04-07T05:40:40.981Z,8.20
2019-04-07T05:42:42.368Z,8.42
2019-04-07T05:44:44.362Z,8.48
2019-04-07T05:46:49.478Z,8.61
2019-04-07T05:48:52.031Z,8.67
2019-04-07T05:50:53.830Z,8.59
2019-04-07T05:52:55.293Z,8.73
2019-04-07T05:54:56.662Z,8.83
2019-04-07T05:57:01.178Z,8.93
2019-04-07T05:59:01.801Z,8.95
2019-04-07T06:01:03.276Z,9.09
2019-04-07T06:03:08.230Z,9.13
2019-04-07T06:05:08.348Z,9.22
2019-04-07T06:07:10.229Z,9.31
2019-04-07T06:09:11.692Z,9.45
2019-04-07T06:11:13.498Z,9.50
2019-04-07T06:13:15.756Z,9.56
2019-04-07T06:15:20.983Z,9.71
2019-04-07T06:17:21.172Z,9.85
2019-04-07T06:19:22.594Z,10.02
2019-04-07T06:21:24.336Z,10.11
2019-04-07T06:23:27.524Z,10.14
2019-04-07T06:25:34.042Z,10.22
2019-04-07T06:27:32.560Z,10.29
2019-04-07T06:29:34.457Z,10.47
2019-04-07T06:31:35.945Z,10.60
2019-04-07T06:33:38.241Z,10.70
2019-04-07T06:35:43.790Z,10.74
2019-04-07T06:37:43.903Z,10.89
2019-04-07T06:39:49.374Z,10.83
2019-04-07T06:41:48.908Z,11.03
2019-04-07T06:43:50.685Z,11.16
2019-04-07T06:45:57.353Z,11.29
2019-04-07T06:48:07.440Z,11.44
2019-04-07T06:50:15.763Z,11.45
2019-04-07T06:52:34.915Z,11.45
2019-04-07T06:54:37.717Z,11.68
2019-04-07T06:56:41.206Z,11.75
2019-04-07T06:58:45.016Z,11.94
2019-04-07T07:00:49.149Z,12.03
2019-04-07T07:03:09.300Z,12.20
2019-04-07T07:05:24.313Z,12.27
2019-04-07T07:07:39.763Z,12.52
2019-04-07T07:10:01.072Z,12.66
2019-04-07T07:12:19.877Z,12.77
2019-04-07T07:14:41.575Z,12.96
2019-04-07T07:16:56.554Z,13.04
2019-04-07T07:19:16.773Z,13.43
2019-04-07T07:21:25.865Z,13.46
2019-04-07T07:23:35.049Z,13.61
2019-04-07T07:25:36.424Z,14.08
2019-04-07T07:27:40.427Z,14.21
2019-04-07T07:29:41.090Z,14.50
2019-04-07T07:31:42.620Z,14.65
2019-04-07T07:33:44.744Z,14.83
2019-04-07T07:35:49.105Z,15.06
2019-04-07T07:37:49.958Z,15.20
2019-04-07T07:39:51.948Z,15.33
2019-04-07T07:41:54.009Z,15.28
2019-04-07T07:44:00.420Z,15.39
2019-04-07T07:45:59.049Z,15.78
2019-04-07T07:48:00.991Z,16.08
2019-04-07T07:50:07.065Z,16.00
2019-04-07T07:52:08.414Z,16.27
2019-04-07T07:54:09.972Z,16.59
2019-04-07T07:56:13.121Z,16.60
2019-04-07T07:58:14.626Z,16.75
2019-04-07T08:00:16.890Z,16.92
2019-04-07T08:02:19.932Z,16.88
2019-04-07T08:04:24.920Z,16.73
2019-04-07T08:06:25.101Z,17.34
2019-04-07T08:08:26.453Z,17.37
2019-04-07T08:10:27.844Z,17.53
2019-04-07T08:12:32.357Z,17.47
2019-04-07T08:14:32.618Z,17.82
2019-04-07T08:16:34.619Z,17.67
2019-04-07T08:18:38.710Z,17.63
2019-04-07T08:20:42.927Z,17.64
2019-04-07T08:22:43.767Z,18.08
2019-04-07T08:24:49.626Z,18.20
2019-04-07T08:26:50.328Z,18.11
2019-04-07T08:28:53.224Z,18.09
2019-04-07T08:30:55.666Z,18.29
2019-04-07T08:33:17.804Z,18.54
2019-04-07T08:36:00.129Z,18.28
2019-04-07T08:38:41.294Z,18.79
2019-04-07T08:41:22.428Z,18.41
2019-04-07T08:43:43.727Z,18.89
2019-04-07T08:46:05.998Z,18.99
2019-04-07T08:48:51.828Z,19.06
2019-04-07T08:51:32.479Z,19.03
2019-04-07T08:54:17.639Z,19.02
2019-04-07T08:56:58.278Z,19.71
2019-04-07T08:59:42.654Z,19.96
2019-04-07T09:02:19.224Z,19.87
2019-04-07T09:04:41.427Z,20.06
2019-04-07T09:07:04.191Z,19.94
2019-04-07T09:09:48.564Z,20.08
2019-04-07T09:12:31.993Z,20.06
2019-04-07T09:18:22.158Z,20.18
2019-04-07T09:23:46.783Z,20.57
2019-04-07T09:29:10.762Z,20.44
2019-04-07T09:34:41.535Z,20.91
2019-04-07T09:37:24.353Z,20.94
2019-04-07T09:40:06.027Z,20.87
2019-04-07T09:51:10.124Z,21.61
2019-04-07T09:53:51.323Z,21.85
2019-04-07T09:56:33.647Z,21.60
2019-04-07T09:59:16.784Z,22.03
2019-04-07T10:02:38.392Z,21.71
2019-04-07T10:08:11.981Z,21.94
2019-04-07T10:10:50.831Z,22.55
2019-04-07T10:13:32.503Z,22.40
2019-04-07T10:16:14.883Z,22.46
2019-04-07T10:18:50.952Z,22.07
2019-04-07T10:21:32.430Z,22.50
2019-04-07T10:35:24.742Z,23.27
2019-04-07T10:38:05.932Z,23.33
2019-04-07T10:40:47.113Z,22.88
2019-04-07T10:46:12.363Z,23.40
2019-04-07T10:48:53.702Z,22.83
2019-04-07T10:51:35.384Z,23.23
2019-04-07T10:54:16.636Z,23.01
2019-04-07T10:56:57.809Z,22.85
2019-04-07T10:59:39.052Z,23.03
2019-04-07T11:05:03.015Z,23.30
2019-04-07T11:07:44.264Z,22.97
2019-04-07T11:10:34.608Z,23.39
2019-04-07T11:16:17.402Z,22.95
2019-04-07T11:18:58.660Z,23.27
2019-04-07T11:21:18.160Z,23.75
2019-04-07T11:23:59.938Z,23.66
2019-04-07T11:26:41.796Z,23.49
2019-04-07T11:32:12.593Z,23.65
2019-04-07T11:37:12.923Z,23.56
2019-04-07T11:42:44.887Z,23.95
2019-04-07T11:50:58.704Z,24.19
2019-04-07T11:53:39.959Z,23.93
2019-04-07T11:56:21.762Z,23.36
2019-04-07T11:59:03.228Z,23.18
2019-04-07T12:01:46.873Z,23.61
2019-04-07T12:04:27.448Z,24.39
2019-04-07T12:07:08.958Z,24.54
2019-04-07T12:09:50.971Z,23.90
2019-04-07T12:12:32.219Z,24.09
2019-04-07T12:15:14.196Z,24.05
2019-04-07T12:17:55.672Z,23.65
2019-04-07T12:20:33.707Z,23.30
2019-04-07T12:23:17.080Z,23.87
2019-04-07T12:25:56.694Z,24.09
2019-04-07T12:28:38.708Z,24.39
2019-04-07T12:31:19.902Z,23.96
2019-04-07T12:34:01.103Z,24.03
2019-04-07T12:39:25.659Z,23.77
2019-04-07T12:42:08.363Z,24.00
2019-04-07T12:47:38.820Z,24.53
2019-04-07T12:50:21.000Z,24.38
2019-04-07T12:55:57.569Z,24.72
2019-04-07T13:01:03.748Z,24.94
2019-04-07T13:04:00.294Z,25.40
2019-04-07T13:12:23.625Z,24.57
2019-04-07T13:18:10.581Z,24.88
2019-04-07T13:20:53.179Z,24.13
2019-04-07T13:23:36.743Z,24.43
2019-04-07T13:26:17.660Z,24.43
2019-04-07T13:28:58.808Z,24.88
2019-04-07T13:34:31.164Z,24.65
2019-04-07T13:40:15.709Z,24.44
2019-04-07T13:43:00.720Z,24.87
2019-04-07T13:45:44.675Z,24.88
2019-04-07T13:54:15.419Z,25.00
2019-04-07T13:56:56.537Z,24.76
2019-04-07T13:59:42.646Z,24.47
2019-04-07T14:05:05.119Z,24.97
2019-04-07T14:07:50.078Z,24.97
2019-04-07T14:13:11.586Z,25.00
2019-04-07T14:15:53.196Z,25.00
2019-04-07T14:20:52.904Z,23.85
2019-04-07T14:23:34.321Z,24.17
2019-04-07T14:31:53.506Z,24.30
2019-04-07T14:34:36.392Z,24.75
2019-04-07T14:37:18.564Z,24.24
2019-04-07T14:39:59.957Z,24.50
2019-04-07T14:45:24.601Z,24.80
2019-04-07T14:48:05.732Z,25.25
2019-04-07T14:50:47.334Z,24.37
2019-04-07T14:53:28.665Z,25.01
2019-04-07T14:56:29.835Z,24.04
2019-04-07T15:02:02.027Z,24.49
2019-04-07T15:07:26.482Z,24.59
2019-04-07T15:10:07.709Z,25.10
2019-04-07T15:12:48.886Z,25.18
2019-04-07T15:15:11.774Z,25.14
2019-04-07T15:17:53.323Z,25.48
2019-04-07T15:20:15.608Z,25.42
2019-04-07T15:22:51.772Z,25.73
2019-04-07T15:25:13.337Z,24.41
2019-04-07T15:27:34.930Z,25.56
2019-04-07T15:29:56.684Z,25.61
2019-04-07T15:32:18.156Z,25.95
2019-04-07T15:34:19.861Z,27.17
2019-04-07T15:36:41.474Z,25.93
2019-04-07T15:39:28.008Z,27.75
2019-04-07T15:42:09.306Z,28.01
2019-04-07T15:44:50.868Z,26.73
2019-04-07T15:47:12.241Z,26.18
2019-04-07T15:49:34.320Z,26.16
2019-04-07T15:52:17.458Z,26.02
2019-04-07T15:55:00.682Z,26.00
2019-04-07T15:57:43.929Z,26.04
2019-04-07T16:00:26.162Z,26.77
2019-04-07T16:02:49.363Z,25.62
2019-04-07T16:05:38.039Z,25.81
2019-04-07T16:08:13.740Z,25.82
2019-04-07T16:10:35.895Z,25.68
2019-04-07T16:13:18.456Z,26.42
2019-04-07T16:15:42.796Z,26.38
2019-04-07T16:18:23.256Z,25.79
2019-04-07T16:21:09.051Z,27.02
2019-04-07T16:23:42.990Z,24.32
2019-04-07T16:26:04.303Z,24.53
2019-04-07T16:28:26.154Z,24.30
2019-04-07T16:30:51.457Z,24.66
2019-04-07T16:33:34.116Z,25.63
2019-04-07T16:36:14.966Z,25.27
2019-04-07T16:38:38.547Z,25.90
2019-04-07T16:41:21.254Z,25.57
2019-04-07T16:43:43.194Z,25.42
2019-04-07T16:46:25.611Z,24.96
2019-04-07T16:48:46.849Z,24.14
2019-04-07T16:51:08.128Z,24.40
2019-04-07T16:53:30.856Z,24.95
2019-04-07T16:56:13.201Z,24.73
2019-04-07T16:58:56.539Z,25.52
2019-04-07T17:01:31.822Z,24.18
2019-04-07T17:03:53.150Z,24.50
2019-04-07T17:06:14.700Z,23.33
2019-04-07T17:08:36.112Z,22.66
2019-04-07T17:10:57.407Z,22.31
2019-04-07T17:13:28.001Z,21.55
2019-04-07T17:15:43.099Z,21.93
2019-04-07T17:18:44.795Z,21.73
2019-04-07T17:21:28.604Z,21.36
2019-04-07T17:24:11.109Z,21.40
2019-04-07T17:26:35.350Z,21.20
2019-04-07T17:29:19.027Z,20.99
2019-04-07T17:32:01.857Z,20.39
2019-04-07T17:34:43.464Z,20.76
2019-04-07T17:37:28.041Z,20.29
2019-04-07T17:40:28.738Z,19.89
2019-04-07T17:42:53.081Z,19.62
2019-04-07T17:48:40.991Z,19.48
2019-04-07T17:51:21.855Z,19.47
2019-04-07T17:59:44.839Z,18.83
2019-04-07T18:02:03.338Z,18.80
2019-04-07T18:04:49.228Z,18.65
2019-04-07T18:10:10.321Z,18.43
2019-04-07T18:12:51.598Z,18.34
2019-04-07T18:15:36.273Z,18.31
2019-04-07T18:18:18.778Z,18.13
2019-04-07T18:20:59.609Z,17.71
2019-04-07T18:23:40.863Z,17.53
2019-04-07T18:29:11.041Z,17.74
2019-04-07T18:31:53.049Z,17.22
2019-04-07T18:34:35.068Z,17.41
2019-04-07T18:37:16.884Z,16.88
2019-04-07T18:40:01.364Z,16.86
2019-04-07T18:42:43.015Z,16.98
2019-04-07T18:45:25.251Z,16.76
2019-04-07T18:48:06.468Z,16.79
2019-04-07T18:50:48.105Z,16.63
2019-04-07T18:53:29.389Z,16.41
2019-04-07T18:55:49.183Z,16.48
2019-04-07T18:58:31.203Z,16.16
2019-04-07T19:01:12.527Z,16.11
2019-04-07T19:03:53.735Z,16.24
2019-04-07T19:06:36.929Z,16.16
2019-04-07T19:09:18.874Z,16.07
2019-04-07T19:12:07.554Z,15.69
2019-04-07T19:14:48.128Z,15.65
2019-04-07T19:20:15.501Z,15.47
2019-04-07T19:22:56.689Z,15.53
2019-04-07T19:28:26.800Z,15.28
2019-04-07T19:31:08.650Z,15.71
2019-04-07T19:33:50.526Z,15.67
2019-04-07T19:36:31.786Z,15.62
2019-04-07T19:39:13.045Z,15.41
2019-04-07T19:44:39.339Z,15.20
2019-04-07T19:47:20.614Z,15.39
2019-04-07T19:55:39.657Z,14.82
2019-04-07T19:58:21.746Z,14.60
2019-04-07T20:01:03.403Z,14.99
2019-04-07T20:03:44.829Z,14.85
2019-04-07T20:12:00.588Z,14.50
2019-04-07T20:15:06.964Z,14.58
2019-04-07T20:17:43.979Z,14.43
2019-04-07T20:20:25.809Z,14.64
2019-04-07T20:23:07.027Z,14.33
2019-04-07T20:25:50.784Z,14.34
2019-04-07T20:28:53.043Z,14.12
2019-04-07T20:31:34.388Z,14.25
2019-04-07T20:34:16.349Z,13.92
2019-04-07T20:36:57.815Z,13.58
2019-04-07T20:39:39.183Z,13.73
2019-04-07T20:42:20.339Z,14.01
2019-04-07T20:45:05.587Z,13.71
2019-04-07T20:47:44.629Z,13.81
2019-04-07T20:50:26.179Z,13.73
2019-04-07T20:53:14.785Z,13.54
2019-04-07T20:55:50.738Z,13.52
2019-04-07T20:58:28.316Z,13.59
2019-04-07T21:01:11.304Z,13.34
2019-04-07T21:03:52.956Z,13.25
2019-04-07T21:06:34.192Z,13.19
2019-04-07T21:09:15.346Z,12.85
2019-04-07T21:11:56.885Z,13.20
2019-04-07T21:26:31.962Z,12.75
2019-04-07T21:29:13.479Z,12.81
2019-04-07T21:31:54.655Z,12.65
2019-04-07T21:40:15.477Z,12.83
2019-04-07T21:42:56.787Z,12.84
2019-04-07T21:45:43.688Z,12.94
2019-04-07T21:48:21.886Z,13.03
2019-04-07T21:53:53.056Z,12.63
2019-04-07T21:56:34.782Z,12.42
2019-04-07T21:59:18.460Z,12.28
2019-04-07T22:01:59.301Z,12.60
2019-04-07T22:12:42.333Z,11.50
2019-04-07T22:15:24.848Z,12.01
2019-04-07T22:17:46.287Z,11.82
2019-04-07T22:20:08.432Z,11.92
2019-04-07T22:22:51.349Z,11.90
2019-04-07T22:25:07.148Z,11.98
2019-04-07T22:27:29.233Z,11.91
2019-04-07T22:29:51.227Z,11.60
2019-04-07T22:32:33.698Z,11.76
2019-04-07T22:34:54.950Z,11.33
2019-04-07T22:37:18.623Z,11.29
2019-04-07T22:40:02.079Z,10.98
2019-04-07T22:42:45.451Z,11.50
2019-04-07T22:45:28.603Z,11.24
2019-04-07T22:48:08.560Z,11.35
2019-04-07T22:50:30.527Z,11.20
2019-04-07T22:53:12.919Z,11.52
2019-04-07T22:55:36.003Z,11.51
2019-04-07T22:58:18.130Z,11.28
2019-04-07T23:00:54.263Z,10.71
2019-04-07T23:03:15.680Z,10.37
2019-04-07T23:05:37.392Z,10.02
2019-04-07T23:08:20.845Z,9.65
2019-04-07T23:11:03.094Z,9.73
2019-04-07T23:13:45.071Z,9.56
2019-04-07T23:16:12.875Z,9.27
2019-04-07T23:18:49.954Z,9.27
2019-04-07T23:21:32.585Z,9.17
2019-04-07T23:23:53.854Z,9.08
2019-04-07T23:26:15.962Z,9.36
2019-04-07T23:28:58.443Z,8.94
2019-04-07T23:31:19.959Z,8.88
2019-04-07T23:33:41.762Z,9.15
2019-04-07T23:36:24.340Z,8.86
2019-04-07T23:38:45.643Z,9.16
2019-04-07T23:41:06.907Z,9.60
2019-04-07T23:43:29.004Z,9.37
2019-04-07T23:46:20.711Z,8.99
2019-04-07T23:48:54.270Z,9.27
2019-04-07T23:51:16.382Z,9.40
2019-04-07T23:54:18.475Z,9.07
2019-04-07T23:56:41.498Z,8.65
2019-04-07T23:59:16.969Z,8.59
